Terminal Aerodrome Forecast
Issued by NWS Wilmington, OH

Home | Current Version | Previous Version | Text Only | Print | Product List | Glossary On
Versions: 1 2 3 4 5 6 7 8 9 10 11 12 13 14 15 16 17 18 19 20 21 22 23 24 25 26 27 28 29 30 31
489
FTUS41 KILN 181304 AAA
TAFDAY
TAF AMD
KDAY 181304Z 1813/1912 28009KT P6SM OVC010
     FM181700 26010KT P6SM OVC012
     FM190300 24007KT P6SM SCT025
     FM190600 19004KT P6SM BKN250=

USA.gov is the U.S. government's official web portal to all federal, state and local government web resources and services.